createdAt,value
2022-08-10T00:01:52.802Z,21.74
2022-08-10T00:04:22.684Z,21.72
2022-08-10T00:06:53.423Z,21.66
2022-08-10T00:09:21.941Z,21.63
2022-08-10T00:11:49.994Z,21.61
2022-08-10T00:14:18.266Z,21.62
2022-08-10T00:16:46.540Z,21.59
2022-08-10T00:19:17.261Z,21.54
2022-08-10T00:21:47.857Z,21.51
2022-08-10T00:24:20.903Z,21.50
2022-08-10T00:27:52.304Z,21.49
2022-08-10T00:29:39.623Z,21.47
2022-08-10T00:32:08.071Z,21.49
2022-08-10T00:34:38.837Z,21.49
2022-08-10T00:37:06.977Z,21.49
2022-08-10T00:39:39.545Z,21.49
2022-08-10T00:42:13.610Z,21.48
2022-08-10T00:44:45.808Z,21.48
2022-08-10T00:47:24.413Z,21.49
2022-08-10T00:50:04.160Z,21.44
2022-08-10T00:52:33.871Z,21.43
2022-08-10T00:55:04.930Z,21.40
2022-08-10T00:57:33.993Z,21.38
2022-08-10T01:00:02.523Z,21.37
2022-08-10T01:02:33.127Z,21.37
2022-08-10T01:05:05.031Z,21.36
2022-08-10T01:07:54.693Z,21.34
2022-08-10T01:10:35.216Z,21.35
2022-08-10T01:13:09.860Z,21.36
2022-08-10T01:15:44.955Z,21.37
2022-08-10T01:18:19.463Z,21.38
2022-08-10T01:21:05.114Z,21.36
2022-08-10T01:23:54.588Z,21.34
2022-08-10T01:26:43.091Z,21.30
2022-08-10T01:29:49.290Z,21.29
2022-08-10T01:32:25.355Z,21.30
2022-08-10T01:35:06.311Z,21.29
2022-08-10T01:37:40.510Z,21.28
2022-08-10T01:40:16.755Z,21.25
2022-08-10T01:42:49.335Z,21.20
2022-08-10T01:45:22.442Z,21.21
2022-08-10T01:48:16.588Z,21.18
2022-08-10T01:50:59.755Z,21.16
2022-08-10T01:53:41.005Z,21.15
2022-08-10T01:56:14.475Z,21.14
2022-08-10T01:58:45.211Z,21.13
2022-08-10T02:01:18.919Z,21.13
2022-08-10T02:04:03.567Z,21.09
2022-08-10T02:06:38.194Z,21.09
2022-08-10T02:09:08.645Z,21.08
2022-08-10T02:12:06.212Z,21.06
2022-08-10T02:14:33.895Z,21.04
2022-08-10T02:17:06.192Z,21.06
2022-08-10T02:19:40.807Z,21.05
2022-08-10T02:22:36.112Z,21.03
2022-08-10T02:25:01.443Z,21.04
2022-08-10T02:27:31.115Z,21.05
2022-08-10T02:30:01.115Z,21.07
2022-08-10T02:32:38.213Z,21.09
2022-08-10T02:35:22.026Z,21.07
2022-08-10T02:37:54.047Z,21.07
2022-08-10T02:45:02.155Z,21.07
2022-08-10T02:45:20.243Z,21.04
2022-08-10T02:46:18.247Z,21.05
2022-08-10T02:48:55.566Z,21.06
2022-08-10T02:52:07.887Z,21.05
2022-08-10T02:54:23.487Z,21.04
2022-08-10T02:56:56.461Z,21.03
2022-08-10T02:59:28.974Z,21.04
2022-08-10T03:02:11.684Z,21.04
2022-08-10T03:04:57.205Z,21.02
2022-08-10T03:07:44.064Z,21.01
2022-08-10T03:10:18.575Z,21.02
2022-08-10T03:12:52.774Z,21.00
2022-08-10T03:15:22.488Z,21.02
2022-08-10T03:17:57.812Z,21.01
2022-08-10T03:20:37.415Z,20.99
2022-08-10T03:23:12.291Z,20.99
2022-08-10T03:25:40.983Z,21.00
2022-08-10T03:28:22.301Z,20.98
2022-08-10T03:30:50.928Z,20.99
2022-08-10T03:33:21.401Z,20.96
2022-08-10T03:36:43.834Z,20.95
2022-08-10T03:38:48.715Z,20.93
2022-08-10T03:41:19.431Z,20.92
2022-08-10T03:43:49.809Z,20.90
2022-08-10T03:46:22.382Z,20.88
2022-08-10T03:48:54.142Z,20.87
2022-08-10T03:51:23.528Z,20.85
2022-08-10T03:54:04.247Z,20.83
2022-08-10T03:56:41.231Z,20.79
2022-08-10T03:59:11.299Z,20.77
2022-08-10T04:02:43.631Z,20.76
2022-08-10T04:04:28.439Z,20.71
2022-08-10T04:06:58.707Z,20.72
2022-08-10T04:09:53.220Z,20.68
2022-08-10T04:12:18.495Z,20.66
2022-08-10T04:14:49.263Z,20.65
2022-08-10T04:18:01.143Z,20.65
2022-08-10T04:20:12.883Z,20.63
2022-08-10T04:22:43.005Z,20.64
2022-08-10T04:25:15.918Z,20.64
2022-08-10T04:27:45.702Z,20.63
2022-08-10T04:30:14.020Z,20.62
2022-08-10T04:32:43.364Z,20.62
2022-08-10T04:35:15.332Z,20.62
2022-08-10T04:37:47.783Z,20.62
2022-08-10T04:40:25.325Z,20.61
2022-08-10T04:43:11.783Z,20.62
2022-08-10T04:45:50.107Z,20.64
2022-08-10T04:49:01.250Z,20.65
2022-08-10T04:51:28.205Z,20.69
2022-08-10T04:54:03.991Z,20.72
2022-08-10T04:56:39.054Z,20.76
2022-08-10T04:59:07.767Z,20.80
2022-08-10T05:02:22.035Z,20.84
2022-08-10T05:04:39.052Z,20.85
2022-08-10T05:07:15.862Z,20.87
2022-08-10T05:10:01.225Z,20.92
2022-08-10T05:12:36.410Z,20.95
2022-08-10T05:15:07.721Z,20.98
2022-08-10T05:17:36.209Z,21.02
2022-08-10T05:20:06.952Z,21.06
2022-08-10T05:22:38.913Z,21.14
2022-08-10T05:25:10.107Z,21.22
2022-08-10T05:27:40.587Z,21.28
2022-08-10T05:30:10.287Z,21.35
2022-08-10T05:32:56.081Z,21.44
2022-08-10T05:35:27.016Z,21.54
2022-08-10T05:38:13.108Z,21.62
2022-08-10T05:40:46.511Z,21.67
2022-08-10T05:43:19.240Z,21.77
2022-08-10T05:46:16.615Z,21.88
2022-08-10T05:48:57.253Z,21.97
2022-08-10T05:51:28.923Z,22.04
2022-08-10T05:54:01.891Z,22.17
2022-08-10T05:56:55.170Z,22.28
2022-08-10T06:00:11.326Z,22.38
2022-08-10T06:02:33.434Z,22.50
2022-08-10T06:05:09.036Z,22.62
2022-08-10T06:07:46.817Z,22.72
2022-08-10T06:10:31.354Z,22.84
2022-08-10T06:13:26.750Z,22.94
2022-08-10T06:16:04.561Z,23.06
2022-08-10T06:18:33.438Z,23.16
2022-08-10T06:21:03.164Z,23.26
2022-08-10T06:23:32.313Z,23.37
2022-08-10T06:26:09.961Z,23.47
2022-08-10T06:28:43.674Z,23.54
2022-08-10T06:31:46.587Z,23.64
2022-08-10T06:34:20.190Z,23.77
2022-08-10T06:36:49.243Z,23.90
2022-08-10T06:39:32.834Z,24.00
2022-08-10T06:42:15.423Z,24.09
2022-08-10T06:44:52.258Z,24.20
2022-08-10T06:47:26.665Z,24.33
2022-08-10T06:50:01.538Z,24.43
2022-08-10T06:52:34.283Z,24.55
2022-08-10T06:55:05.486Z,24.70
2022-08-10T06:57:39.726Z,24.84
2022-08-10T07:00:10.364Z,24.98
2022-08-10T07:02:45.967Z,25.07
2022-08-10T07:05:20.113Z,25.16
2022-08-10T07:07:49.533Z,25.27
2022-08-10T07:10:20.652Z,25.44
2022-08-10T07:12:51.130Z,25.63
2022-08-10T07:15:20.304Z,25.74
2022-08-10T07:17:52.181Z,25.88
2022-08-10T07:20:21.622Z,26.04
2022-08-10T07:23:08.670Z,26.22
2022-08-10T07:25:43.056Z,26.54
2022-08-10T07:28:12.050Z,27.04
2022-08-10T07:30:42.054Z,27.54
2022-08-10T07:33:13.046Z,28.11
2022-08-10T07:35:44.575Z,28.48
2022-08-10T07:38:27.951Z,28.69
2022-08-10T07:40:58.519Z,28.88
2022-08-10T07:43:28.760Z,29.18
2022-08-10T07:45:58.891Z,29.45
2022-08-10T07:48:31.904Z,29.73
2022-08-10T07:51:02.273Z,29.94
2022-08-10T07:53:34.887Z,30.09
2022-08-10T07:56:16.853Z,30.13
2022-08-10T07:58:52.656Z,30.35
2022-08-10T08:01:25.166Z,30.60
2022-08-10T08:04:05.388Z,30.81
2022-08-10T08:06:41.266Z,30.94
2022-08-10T08:09:10.270Z,30.99
2022-08-10T08:11:39.088Z,31.20
2022-08-10T08:14:08.875Z,31.38
2022-08-10T08:16:39.615Z,31.40
2022-08-10T08:19:26.462Z,31.54
2022-08-10T08:24:14.787Z,31.64
2022-08-10T08:24:45.419Z,31.72
2022-08-10T08:27:16.726Z,31.81
2022-08-10T08:29:47.876Z,31.97
2022-08-10T08:32:19.606Z,32.13
2022-08-10T08:34:51.260Z,32.19
2022-08-10T08:38:33.738Z,32.12
2022-08-10T08:40:13.062Z,32.22
2022-08-10T08:43:06.191Z,32.32
2022-08-10T08:46:00.760Z,32.41
2022-08-10T08:50:05.073Z,32.50
2022-08-10T08:52:33.260Z,32.60
2022-08-10T08:56:04.022Z,32.68
2022-08-10T08:58:09.616Z,32.87
2022-08-10T09:00:44.727Z,33.05
2022-08-10T09:03:28.127Z,33.13
2022-08-10T09:06:07.108Z,33.11
2022-08-10T09:09:01.877Z,33.08
2022-08-10T09:11:45.723Z,32.99
2022-08-10T09:14:25.794Z,33.04
2022-08-10T09:16:58.805Z,32.96
2022-08-10T09:19:36.364Z,33.06
2022-08-10T09:22:18.174Z,33.30
2022-08-10T09:25:00.215Z,33.45
2022-08-10T09:27:35.413Z,33.79
2022-08-10T09:30:08.385Z,34.05
2022-08-10T09:36:15.037Z,34.32
2022-08-10T09:36:20.492Z,34.54
2022-08-10T09:38:40.967Z,34.47
2022-08-10T09:41:21.041Z,34.68
2022-08-10T09:43:57.876Z,34.90
2022-08-10T09:46:41.144Z,35.26
2022-08-10T09:49:18.217Z,35.50
2022-08-10T09:52:03.114Z,35.53
2022-08-10T09:54:48.622Z,35.81
2022-08-10T09:57:54.695Z,35.95
2022-08-10T10:00:16.130Z,36.18
2022-08-10T10:03:00.179Z,36.41
2022-08-10T10:05:52.654Z,36.56
2022-08-10T10:08:32.406Z,36.45
2022-08-10T10:11:12.993Z,36.37
2022-08-10T10:14:03.023Z,36.33
2022-08-10T10:16:44.971Z,36.17
2022-08-10T10:19:43.826Z,36.18
2022-08-10T10:22:34.369Z,36.60
2022-08-10T10:25:19.804Z,36.82
2022-08-10T10:27:59.335Z,37.07
2022-08-10T10:30:37.568Z,37.34
2022-08-10T10:33:15.780Z,37.65
2022-08-10T10:35:52.202Z,37.63
2022-08-10T10:38:23.324Z,37.78
2022-08-10T10:41:01.662Z,37.92
2022-08-10T10:43:43.066Z,38.10
2022-08-10T10:46:45.869Z,37.66
2022-08-10T10:49:23.833Z,37.77
2022-08-10T10:52:02.042Z,38.09
2022-08-10T10:54:40.805Z,37.79
2022-08-10T10:57:16.886Z,37.70
2022-08-10T10:59:57.882Z,38.05
2022-08-10T11:02:51.189Z,38.28
2022-08-10T11:05:28.011Z,38.63
2022-08-10T11:08:01.123Z,38.70
2022-08-10T11:10:37.458Z,38.85
2022-08-10T11:14:26.219Z,39.09
2022-08-10T11:16:43.236Z,39.10
2022-08-10T11:19:19.250Z,39.57
2022-08-10T11:21:58.363Z,39.94
2022-08-10T11:24:42.938Z,40.18
2022-08-10T11:27:24.446Z,40.37
2022-08-10T11:30:01.689Z,40.40
2022-08-10T11:32:36.660Z,40.39
2022-08-10T11:35:13.480Z,40.53
2022-08-10T11:38:31.924Z,40.56
2022-08-10T11:40:46.069Z,40.61
2022-08-10T11:43:21.908Z,40.35
2022-08-10T11:45:55.884Z,39.86
2022-08-10T11:48:53.356Z,39.74
2022-08-10T11:51:29.210Z,39.98
2022-08-10T11:54:08.819Z,40.28
2022-08-10T11:56:47.065Z,40.62
2022-08-10T11:59:34.295Z,40.97
2022-08-10T12:02:03.823Z,40.91
2022-08-10T12:04:34.090Z,41.15
2022-08-10T12:10:01.712Z,41.57
2022-08-10T12:10:09.417Z,41.74
2022-08-10T12:12:46.834Z,41.90
2022-08-10T12:15:20.697Z,41.98
2022-08-10T12:17:53.474Z,42.00
2022-08-10T12:20:28.731Z,42.24
2022-08-10T12:23:03.017Z,42.36
2022-08-10T12:25:56.080Z,42.51
2022-08-10T12:28:49.400Z,42.58
2022-08-10T12:31:24.380Z,42.45
2022-08-10T12:34:05.035Z,42.37
2022-08-10T12:36:40.843Z,42.47
2022-08-10T12:39:16.242Z,42.28
2022-08-10T12:41:52.479Z,42.29
2022-08-10T12:44:41.766Z,42.11
2022-08-10T12:47:19.197Z,41.25
2022-08-10T12:50:29.532Z,41.14
2022-08-10T12:52:51.127Z,41.13
2022-08-10T12:55:22.105Z,41.30
2022-08-10T12:57:53.482Z,41.46
2022-08-10T13:00:27.706Z,41.61
2022-08-10T13:02:57.590Z,41.88
2022-08-10T13:05:28.233Z,42.04
2022-08-10T13:08:26.842Z,42.11
2022-08-10T13:11:02.883Z,42.25
2022-08-10T13:13:34.972Z,41.87
2022-08-10T13:16:04.166Z,41.69
2022-08-10T13:18:36.103Z,41.69
2022-08-10T13:21:20.283Z,41.83
2022-08-10T13:24:03.397Z,41.83
2022-08-10T13:26:38.814Z,41.60
2022-08-10T13:29:33.177Z,41.65
2022-08-10T13:32:10.623Z,41.75
2022-08-10T13:34:45.699Z,41.92
2022-08-10T13:37:16.782Z,42.01
2022-08-10T13:39:59.745Z,41.95
2022-08-10T13:42:34.067Z,41.94
2022-08-10T13:45:09.310Z,41.72
2022-08-10T13:47:48.577Z,41.61
2022-08-10T13:50:33.483Z,41.45
2022-08-10T13:53:14.358Z,41.14
2022-08-10T13:55:54.368Z,40.98
2022-08-10T13:58:30.042Z,40.88
2022-08-10T14:01:00.798Z,40.74
2022-08-10T14:03:34.734Z,40.60
2022-08-10T14:06:05.343Z,40.61
2022-08-10T14:08:35.383Z,40.39
2022-08-10T14:11:11.294Z,40.28
2022-08-10T14:13:46.481Z,39.82
2022-08-10T14:16:15.000Z,39.51
2022-08-10T14:18:46.561Z,39.36
2022-08-10T14:21:26.027Z,39.33
2022-08-10T14:23:55.571Z,39.17
2022-08-10T14:26:28.174Z,38.98
2022-08-10T14:29:03.159Z,38.83
2022-08-10T14:31:34.667Z,38.86
2022-08-10T14:34:08.681Z,38.94
2022-08-10T14:36:43.327Z,39.03
2022-08-10T14:39:20.769Z,39.10
2022-08-10T14:42:04.261Z,38.95
2022-08-10T14:44:46.713Z,38.96
2022-08-10T14:47:53.623Z,38.94
2022-08-10T14:50:32.316Z,38.95
2022-08-10T14:53:09.749Z,38.95
2022-08-10T14:55:59.138Z,39.00
2022-08-10T14:58:33.040Z,38.84
2022-08-10T15:01:07.464Z,38.83
2022-08-10T15:04:01.798Z,38.78
2022-08-10T15:06:42.919Z,38.70
2022-08-10T15:09:19.881Z,38.66
2022-08-10T15:12:13.732Z,38.38
2022-08-10T15:14:44.719Z,38.28
2022-08-10T15:17:26.321Z,38.22
2022-08-10T15:20:02.231Z,38.21
2022-08-10T15:22:38.680Z,38.14
2022-08-10T15:25:18.942Z,37.96
2022-08-10T15:27:55.724Z,37.91
2022-08-10T15:30:32.442Z,38.10
2022-08-10T15:33:57.742Z,38.23
2022-08-10T15:36:35.254Z,38.20
2022-08-10T15:39:14.156Z,38.20
2022-08-10T15:42:07.220Z,38.10
2022-08-10T15:44:39.661Z,38.10
2022-08-10T15:47:12.621Z,38.08
2022-08-10T15:49:58.885Z,37.99
2022-08-10T15:53:00.535Z,37.89
2022-08-10T15:55:43.487Z,37.91
2022-08-10T15:58:30.283Z,37.90
2022-08-10T16:02:12.441Z,37.85
2022-08-10T16:04:08.373Z,37.82
2022-08-10T16:06:42.855Z,37.79
2022-08-10T16:10:26.307Z,37.71
2022-08-10T16:12:09.947Z,37.64
2022-08-10T16:14:39.991Z,37.64
2022-08-10T16:17:11.761Z,37.62
2022-08-10T16:19:48.762Z,37.52
2022-08-10T16:22:36.680Z,37.54
2022-08-10T16:25:14.133Z,37.38
2022-08-10T16:27:45.430Z,37.26
2022-08-10T16:30:14.589Z,37.13
2022-08-10T16:32:46.613Z,37.10
2022-08-10T16:35:20.614Z,36.95
2022-08-10T16:37:57.035Z,36.83
2022-08-10T16:40:29.881Z,36.73
2022-08-10T16:43:00.916Z,36.71
2022-08-10T16:45:41.131Z,36.69
2022-08-10T16:48:11.263Z,36.64
2022-08-10T16:50:45.354Z,36.51
2022-08-10T16:53:17.843Z,36.38
2022-08-10T16:55:50.479Z,36.26
2022-08-10T16:58:27.342Z,36.15
2022-08-10T17:01:03.707Z,36.00
2022-08-10T17:04:05.464Z,35.92
2022-08-10T17:06:30.325Z,35.78
2022-08-10T17:09:01.832Z,35.67
2022-08-10T17:11:32.143Z,35.51
2022-08-10T17:14:02.452Z,35.41
2022-08-10T17:16:36.799Z,35.43
2022-08-10T17:19:11.847Z,35.34
2022-08-10T17:21:51.651Z,35.33
2022-08-10T17:24:25.152Z,35.30
2022-08-10T17:26:56.983Z,35.24
2022-08-10T17:29:58.141Z,35.18
2022-08-10T17:32:25.101Z,35.06
2022-08-10T17:34:57.848Z,34.84
2022-08-10T17:37:31.668Z,34.76
2022-08-10T17:40:07.084Z,34.50
2022-08-10T17:42:37.223Z,34.38
2022-08-10T17:45:08.107Z,34.29
2022-08-10T17:47:36.382Z,34.12
2022-08-10T17:50:05.052Z,34.03
2022-08-10T17:52:34.189Z,33.95
2022-08-10T17:55:07.219Z,33.90
2022-08-10T17:57:38.510Z,33.78
2022-08-10T18:00:13.530Z,33.65
2022-08-10T18:02:44.653Z,33.52
2022-08-10T18:05:14.346Z,33.31
2022-08-10T18:07:48.371Z,33.09
2022-08-10T18:10:22.541Z,32.91
2022-08-10T18:12:54.279Z,32.68
2022-08-10T18:15:24.559Z,32.48
2022-08-10T18:17:59.213Z,32.31
2022-08-10T18:20:33.643Z,32.14
2022-08-10T18:23:04.166Z,32.01
2022-08-10T18:25:36.222Z,31.85
2022-08-10T18:28:09.026Z,31.70
2022-08-10T18:30:48.030Z,31.52
2022-08-10T18:33:17.512Z,31.37
2022-08-10T18:35:46.643Z,31.23
2022-08-10T18:38:17.336Z,31.14
2022-08-10T18:40:54.173Z,31.00
2022-08-10T18:44:06.062Z,30.91
2022-08-10T18:46:18.368Z,30.78
2022-08-10T18:48:50.931Z,30.66
2022-08-10T18:51:25.879Z,30.54
2022-08-10T18:53:58.649Z,30.45
2022-08-10T18:56:39.518Z,30.33
2022-08-10T18:59:29.225Z,30.23
2022-08-10T19:02:13.474Z,30.10
2022-08-10T19:05:02.413Z,30.01
2022-08-10T19:07:50.351Z,29.90
2022-08-10T19:10:35.311Z,29.79
2022-08-10T19:13:14.663Z,29.70
2022-08-10T19:15:49.575Z,29.58
2022-08-10T19:18:29.298Z,29.43
2022-08-10T19:21:03.530Z,29.34
2022-08-10T19:23:40.668Z,29.23
2022-08-10T19:26:42.617Z,29.12
2022-08-10T19:30:10.035Z,29.01
2022-08-10T19:32:38.647Z,28.88
2022-08-10T19:35:12.076Z,28.77
2022-08-10T19:37:59.994Z,28.68
2022-08-10T19:40:43.356Z,28.58
2022-08-10T19:43:30.573Z,28.48
2022-08-10T19:46:11.032Z,28.40
2022-08-10T19:48:45.826Z,28.32
2022-08-10T19:51:19.466Z,28.24
2022-08-10T19:53:57.155Z,28.13
2022-08-10T19:56:34.683Z,28.03
2022-08-10T19:59:10.012Z,27.95
2022-08-10T20:01:54.458Z,27.88
2022-08-10T20:04:29.717Z,27.81
2022-08-10T20:07:11.601Z,27.74
2022-08-10T20:09:47.235Z,27.66
2022-08-10T20:12:21.398Z,27.56
2022-08-10T20:14:57.962Z,27.44
2022-08-10T20:17:51.541Z,27.35
2022-08-10T20:20:31.069Z,27.26
2022-08-10T20:23:08.958Z,27.15
2022-08-10T20:25:37.301Z,27.08
2022-08-10T20:28:14.455Z,26.99
2022-08-10T20:30:47.759Z,26.93
2022-08-10T20:33:27.287Z,26.84
2022-08-10T20:36:02.472Z,26.84
2022-08-10T20:38:35.282Z,26.79
2022-08-10T20:41:13.106Z,26.73
2022-08-10T20:43:53.673Z,26.63
2022-08-10T20:46:28.511Z,26.57
2022-08-10T20:49:02.322Z,26.49
2022-08-10T20:51:57.909Z,26.42
2022-08-10T20:54:32.977Z,26.35
2022-08-10T20:57:55.683Z,26.24
2022-08-10T21:00:11.089Z,26.22
2022-08-10T21:03:00.796Z,26.13
2022-08-10T21:05:52.810Z,26.06
2022-08-10T21:08:35.168Z,25.96
2022-08-10T21:11:09.084Z,25.92
2022-08-10T21:14:02.046Z,25.82
2022-08-10T21:16:50.513Z,25.75
2022-08-10T21:19:36.021Z,25.71
2022-08-10T21:22:12.762Z,25.67
2022-08-10T21:24:52.070Z,25.68
2022-08-10T21:27:49.127Z,25.61
2022-08-10T21:30:40.360Z,25.58
2022-08-10T21:33:12.594Z,25.57
2022-08-10T21:35:44.827Z,25.56
2022-08-10T21:38:27.180Z,25.49
2022-08-10T21:41:57.294Z,25.47
2022-08-10T21:44:52.963Z,25.42
2022-08-10T21:48:06.966Z,25.36
2022-08-10T21:51:02.205Z,25.31
2022-08-10T21:53:57.059Z,25.24
2022-08-10T21:56:47.747Z,25.21
2022-08-10T21:59:49.245Z,25.13
2022-08-10T22:02:50.074Z,25.09
2022-08-10T22:05:42.384Z,25.04
2022-08-10T22:08:31.149Z,25.01
2022-08-10T22:11:20.165Z,24.97
2022-08-10T22:14:09.654Z,24.90
2022-08-10T22:17:03.879Z,24.87
2022-08-10T22:19:53.155Z,24.83
2022-08-10T22:22:56.009Z,24.78
2022-08-10T22:25:55.535Z,24.74
2022-08-10T22:28:48.814Z,24.72
2022-08-10T22:31:53.674Z,24.66
2022-08-10T22:34:58.072Z,24.60
2022-08-10T22:37:57.485Z,24.56
2022-08-10T22:40:44.010Z,24.54
2022-08-10T22:43:38.668Z,24.47
2022-08-10T22:46:33.961Z,24.44
2022-08-10T22:49:01.299Z,24.41
2022-08-10T22:51:52.038Z,24.36
2022-08-10T22:54:45.168Z,24.34
2022-08-10T22:57:32.330Z,24.32
2022-08-10T23:00:10.045Z,24.29
2022-08-10T23:02:40.203Z,24.25
2022-08-10T23:05:12.567Z,24.23
2022-08-10T23:07:48.309Z,24.20
2022-08-10T23:10:18.954Z,24.16
2022-08-10T23:12:50.949Z,24.14
2022-08-10T23:15:42.890Z,24.10
2022-08-10T23:18:36.387Z,24.03
2022-08-10T23:21:05.911Z,24.02
2022-08-10T23:23:39.590Z,24.01
2022-08-10T23:26:10.490Z,23.99
2022-08-10T23:28:59.877Z,23.97
2022-08-10T23:31:59.195Z,23.94
2022-08-10T23:34:25.497Z,23.89
2022-08-10T23:36:55.204Z,23.89
2022-08-10T23:39:32.567Z,23.86
2022-08-10T23:42:07.699Z,23.84
2022-08-10T23:44:45.905Z,23.80
2022-08-10T23:47:17.040Z,23.79
2022-08-10T23:49:49.045Z,23.77
2022-08-10T23:52:21.835Z,23.73
2022-08-10T23:54:53.810Z,23.71
2022-08-10T23:57:25.796Z,23.67
2022-08-10T23:59:57.999Z,23.64
